Aérodrome :
LOGIN :

S'inscrire | Disclaimer

   EN    FR    IT 

 










Légende :    VFR   VFR Marginal   IFR   IFR Intensif   IFR Très Intensif
Visi : 
Plafond : 
>= 8 km
>= 3000ft
5 à 8 km
1000 à 3000 ft
1500m à 5 km
500 à 1000 ft
800 à 1500m
200 à 500 ft
< 800m
< 200 ft
Symboles :   Orages  Brouillard  Fortes neiges  Fortes précipitations  Vent > 20 kt
SIGMETs :   Divers  Orages  Givrage  Turbulence  Onde Orograph.  Cendres Volcan.







- Altitude de l'aérodrome : 370 ft


EBBE - Beauvechain AB

DERNIER METAR :
  • 160843Z AUTO 24010KT 9999 FEW020/// BKN049/// 17/13 Q1020 BLU

METARs EXPIRÉS :
  • 160825Z AUTO 23011KT 9999 FEW018/// SCT022/// BKN027/// 17/12 Q1020 WHT
  • 160755Z AUTO 23012KT 9999 SCT018/// BKN022/// BKN048/// 17/12 Q1020 WHT
  • 160725Z AUTO 23010KT 9999 BKN018/// BKN021/// 16/11 Q1020 WHT
  • 160655Z AUTO 22012KT 9999 BKN016/// 16/11 Q1020 WHT
  • 160642Z AUTO 21011KT 9999 SCT016/// 16/12 Q1020 WHT
  • 160625Z AUTO 21010KT 9999 NCD 16/11 Q1019 BLU
  • 160555Z AUTO 20009KT 9999 NCD 15/11 Q1020 BLU

Prévision TAF périmée.
Pas de NOTAMs connus pour ce terrain.



MET'MAP, la Météo Aéronautique d'un coup d'oeil ! - Copyright ORBIFLY Décembre 2007 - Disclaimer

ORBIFLY MET'MAP TEAM :

Programmation & Développement : Alexandra Zaïnal
Conception & Développement : Baudouin d'Aumeries
Co-Programmation & Développement : Marc-Olivier Méhu
Soutien technique & logistique : Manuel Goepfert

Contact : metmap@orbifly.com




SOURCES & CREDITS :

   NOAA